Phoenix Sky Harbor International Airport Phoenix US
ICAO: KPHX
IATA: PHX
Category: Large
Scheduled Services: Yes

Elevation: 1135 ft
TransAlt. 18000 ft.

Airport Communications:
APP/DEP:124.1
ATIS:127.575
CLNC DEL:118.1
GND:119.75
ANG COMD POST:140
PRESCOTT RDO:122.2
TWR:118.7
UNICOM:122.95

KPHX Zoom In..

If you have problems with the map follow the link
https://www.worldairports.se/pages/airport.php?
ICAO=KPHX

Runways:

(A) RW 07L length 10300 ft width 150 ft
ILS 111.50 / hdg 78

(B) RW 07R length 7800 ft width 150 ft
ILS 110.75 / hdg 78

(C) RW 08 length 11489 ft width 150 ft
ILS 111.75 / hdg 78

(D) RW 25L length 7800 ft width 150 ft
ILS 110.75 / hdg 258

(E) RW 25R length 10300 ft width 150 ft
---- / hdg 258

(F) RW 26 length 11489 ft width 150 ft
ILS 111.75 / hdg 258

Location; KPHX
Day. 08 / Time. 18.51 Zulu
* Altimeter: 30.03
* Temperature: 16° c. 60.8°f.
* Wind from: VRB° Speed 03 kn.
Dewpoint: 12° c.
Visibility: 10 Statute Miles.
Clouds: Scattered 4500 ft.
Clouds: Broken 6000 ft.
Clouds: Overcast 1000 ft.

KPHX 081851Z VRB03KT 10SM SCT045 BKN060 OVC100 16/12 A3003 RMK AO2 SLP160 T01560122


Wind From VRB°
Speed 03 kn.

 
 
jpsmedia worldairports.se 2019   terms of use